sensor_id;sensor_type;location;lat;lon;timestamp;temperature;humidity
30678;DHT22;17437;47.188;8.896;2023-05-02T00:00:21;10.10;99.90
30678;DHT22;17437;47.188;8.896;2023-05-02T00:02:52;10.10;99.90
30678;DHT22;17437;47.188;8.896;2023-05-02T00:05:25;10.10;99.90
30678;DHT22;17437;47.188;8.896;2023-05-02T00:07:56;10.00;99.90
30678;DHT22;17437;47.188;8.896;2023-05-02T00:10:28;10.00;99.90
30678;DHT22;17437;47.188;8.896;2023-05-02T00:13:00;10.00;99.90
30678;DHT22;17437;47.188;8.896;2023-05-02T00:15:31;10.00;99.90
30678;DHT22;17437;47.188;8.896;2023-05-02T00:18:03;10.00;99.90
30678;DHT22;17437;47.188;8.896;2023-05-02T00:20:34;10.00;99.90
30678;DHT22;17437;47.188;8.896;2023-05-02T00:23:06;10.00;99.90
30678;DHT22;17437;47.188;8.896;2023-05-02T00:25:42;10.00;99.90
30678;DHT22;17437;47.188;8.896;2023-05-02T00:28:11;9.90;99.90
30678;DHT22;17437;47.188;8.896;2023-05-02T00:30:43;9.90;99.90
30678;DHT22;17437;47.188;8.896;2023-05-02T00:33:15;9.90;99.90
30678;DHT22;17437;47.188;8.896;2023-05-02T00:35:47;9.90;99.90
30678;DHT22;17437;47.188;8.896;2023-05-02T00:38:19;10.00;99.90
30678;DHT22;17437;47.188;8.896;2023-05-02T00:40:50;9.90;99.90
30678;DHT22;17437;47.188;8.896;2023-05-02T00:43:22;10.00;99.90
30678;DHT22;17437;47.188;8.896;2023-05-02T00:45:55;9.90;99.90
30678;DHT22;17437;47.188;8.896;2023-05-02T00:48:26;9.90;99.90
30678;DHT22;17437;47.188;8.896;2023-05-02T00:50:58;9.90;99.90
30678;DHT22;17437;47.188;8.896;2023-05-02T00:53:31;9.90;99.90
30678;DHT22;17437;47.188;8.896;2023-05-02T00:56:03;9.90;99.90
30678;DHT22;17437;47.188;8.896;2023-05-02T00:58:35;9.90;99.90
30678;DHT22;17437;47.188;8.896;2023-05-02T01:01:13;9.90;99.90
30678;DHT22;17437;47.188;8.896;2023-05-02T01:03:49;9.90;99.90
30678;DHT22;17437;47.188;8.896;2023-05-02T01:06:30;9.90;99.90
30678;DHT22;17437;47.188;8.896;2023-05-02T01:09:06;9.90;99.90
30678;DHT22;17437;47.188;8.896;2023-05-02T01:11:43;9.80;99.90
30678;DHT22;17437;47.188;8.896;2023-05-02T01:14:15;9.80;99.90
30678;DHT22;17437;47.188;8.896;2023-05-02T01:16:48;9.80;99.90
30678;DHT22;17437;47.188;8.896;2023-05-02T01:19:24;9.80;99.90
30678;DHT22;17437;47.188;8.896;2023-05-02T01:21:56;9.70;99.90
30678;DHT22;17437;47.188;8.896;2023-05-02T01:24:31;9.70;99.90
30678;DHT22;17437;47.188;8.896;2023-05-02T01:27:13;9.70;99.90
30678;DHT22;17437;47.188;8.896;2023-05-02T01:29:44;9.60;99.90
30678;DHT22;17437;47.188;8.896;2023-05-02T01:32:19;9.60;99.90
30678;DHT22;17437;47.188;8.896;2023-05-02T01:34:53;9.60;99.90
30678;DHT22;17437;47.188;8.896;2023-05-02T01:37:27;9.60;99.90
30678;DHT22;17437;47.188;8.896;2023-05-02T01:40:00;9.60;99.90
30678;DHT22;17437;47.188;8.896;2023-05-02T01:42:35;9.50;99.90
30678;DHT22;17437;47.188;8.896;2023-05-02T01:45:10;9.60;99.90
30678;DHT22;17437;47.188;8.896;2023-05-02T01:47:44;9.60;99.90
30678;DHT22;17437;47.188;8.896;2023-05-02T01:50:19;9.60;99.90
30678;DHT22;17437;47.188;8.896;2023-05-02T01:52:53;9.60;99.90
30678;DHT22;17437;47.188;8.896;2023-05-02T01:55:25;9.60;99.90
30678;DHT22;17437;47.188;8.896;2023-05-02T01:57:58;9.50;99.90
30678;DHT22;17437;47.188;8.896;2023-05-02T02:00:31;9.50;99.90
30678;DHT22;17437;47.188;8.896;2023-05-02T02:03:05;9.50;99.90
30678;DHT22;17437;47.188;8.896;2023-05-02T02:05:38;9.40;99.90
30678;DHT22;17437;47.188;8.896;2023-05-02T02:08:10;9.40;99.90
30678;DHT22;17437;47.188;8.896;2023-05-02T02:10:44;9.40;99.90
30678;DHT22;17437;47.188;8.896;2023-05-02T02:13:18;9.40;99.90
30678;DHT22;17437;47.188;8.896;2023-05-02T02:15:52;9.40;99.90
30678;DHT22;17437;47.188;8.896;2023-05-02T02:18:26;9.40;99.90
30678;DHT22;17437;47.188;8.896;2023-05-02T02:20:59;9.40;99.90
30678;DHT22;17437;47.188;8.896;2023-05-02T02:23:32;9.30;99.90
30678;DHT22;17437;47.188;8.896;2023-05-02T02:26:05;9.30;99.90
30678;DHT22;17437;47.188;8.896;2023-05-02T02:28:37;9.30;99.90
30678;DHT22;17437;47.188;8.896;2023-05-02T02:31:08;9.30;99.90
30678;DHT22;17437;47.188;8.896;2023-05-02T02:33:40;9.30;99.90
30678;DHT22;17437;47.188;8.896;2023-05-02T02:36:17;9.30;99.90
30678;DHT22;17437;47.188;8.896;2023-05-02T02:38:53;9.30;99.90
30678;DHT22;17437;47.188;8.896;2023-05-02T02:41:26;9.30;99.90
30678;DHT22;17437;47.188;8.896;2023-05-02T02:44:03;9.30;99.90
30678;DHT22;17437;47.188;8.896;2023-05-02T02:46:40;9.20;99.90
30678;DHT22;17437;47.188;8.896;2023-05-02T02:49:19;9.20;99.90
30678;DHT22;17437;47.188;8.896;2023-05-02T02:51:54;9.10;99.90
30678;DHT22;17437;47.188;8.896;2023-05-02T02:54:30;9.10;99.90
30678;DHT22;17437;47.188;8.896;2023-05-02T02:57:05;9.10;99.90
30678;DHT22;17437;47.188;8.896;2023-05-02T02:59:39;9.10;99.90
30678;DHT22;17437;47.188;8.896;2023-05-02T03:02:14;9.10;99.90
30678;DHT22;17437;47.188;8.896;2023-05-02T03:04:46;9.00;99.90
30678;DHT22;17437;47.188;8.896;2023-05-02T03:07:19;9.00;99.90
30678;DHT22;17437;47.188;8.896;2023-05-02T03:09:51;8.90;99.90
30678;DHT22;17437;47.188;8.896;2023-05-02T03:12:23;8.90;99.90
30678;DHT22;17437;47.188;8.896;2023-05-02T03:14:58;8.90;99.90
30678;DHT22;17437;47.188;8.896;2023-05-02T03:17:29;8.90;99.90
30678;DHT22;17437;47.188;8.896;2023-05-02T03:20:00;8.90;99.90
30678;DHT22;17437;47.188;8.896;2023-05-02T03:22:33;9.00;99.90
30678;DHT22;17437;47.188;8.896;2023-05-02T03:25:05;9.00;99.90
30678;DHT22;17437;47.188;8.896;2023-05-02T03:27:37;9.00;99.90
30678;DHT22;17437;47.188;8.896;2023-05-02T03:30:10;9.00;99.90
30678;DHT22;17437;47.188;8.896;2023-05-02T03:32:41;9.00;99.90
30678;DHT22;17437;47.188;8.896;2023-05-02T03:35:13;9.10;99.90
30678;DHT22;17437;47.188;8.896;2023-05-02T03:37:45;9.10;99.90
30678;DHT22;17437;47.188;8.896;2023-05-02T03:40:17;9.10;99.90
30678;DHT22;17437;47.188;8.896;2023-05-02T03:42:50;9.20;99.90
30678;DHT22;17437;47.188;8.896;2023-05-02T03:45:21;9.30;99.90
30678;DHT22;17437;47.188;8.896;2023-05-02T03:47:53;9.30;99.90
30678;DHT22;17437;47.188;8.896;2023-05-02T03:50:25;9.30;99.90
30678;DHT22;17437;47.188;8.896;2023-05-02T03:52:56;9.40;99.90
30678;DHT22;17437;47.188;8.896;2023-05-02T03:55:28;9.40;99.90
30678;DHT22;17437;47.188;8.896;2023-05-02T03:58:00;9.40;99.90
30678;DHT22;17437;47.188;8.896;2023-05-02T04:00:32;9.40;99.90
30678;DHT22;17437;47.188;8.896;2023-05-02T04:03:04;9.50;99.90
30678;DHT22;17437;47.188;8.896;2023-05-02T04:05:36;9.50;99.90
30678;DHT22;17437;47.188;8.896;2023-05-02T04:08:08;9.50;99.90
30678;DHT22;17437;47.188;8.896;2023-05-02T04:10:39;9.40;99.90
30678;DHT22;17437;47.188;8.896;2023-05-02T04:13:11;9.40;99.90
30678;DHT22;17437;47.188;8.896;2023-05-02T04:15:44;9.40;99.90
30678;DHT22;17437;47.188;8.896;2023-05-02T04:18:16;9.30;99.90
30678;DHT22;17437;47.188;8.896;2023-05-02T04:20:48;9.30;99.90
30678;DHT22;17437;47.188;8.896;2023-05-02T04:23:20;9.30;99.90
30678;DHT22;17437;47.188;8.896;2023-05-02T04:25:52;9.40;99.90
30678;DHT22;17437;47.188;8.896;2023-05-02T04:28:24;9.40;99.90
30678;DHT22;17437;47.188;8.896;2023-05-02T04:30:56;9.50;99.90
30678;DHT22;17437;47.188;8.896;2023-05-02T04:33:27;9.50;99.90
30678;DHT22;17437;47.188;8.896;2023-05-02T04:35:59;9.50;99.90
30678;DHT22;17437;47.188;8.896;2023-05-02T04:38:31;9.50;99.90
30678;DHT22;17437;47.188;8.896;2023-05-02T04:41:03;9.50;99.90
30678;DHT22;17437;47.188;8.896;2023-05-02T04:43:36;9.50;99.90
30678;DHT22;17437;47.188;8.896;2023-05-02T04:46:08;9.50;99.90
30678;DHT22;17437;47.188;8.896;2023-05-02T04:48:41;9.50;99.90
30678;DHT22;17437;47.188;8.896;2023-05-02T04:51:12;9.50;99.90
30678;DHT22;17437;47.188;8.896;2023-05-02T04:53:45;9.50;99.90
30678;DHT22;17437;47.188;8.896;2023-05-02T04:56:17;9.50;99.90
30678;DHT22;17437;47.188;8.896;2023-05-02T04:58:48;9.50;99.90
30678;DHT22;17437;47.188;8.896;2023-05-02T05:01:20;9.50;99.90
30678;DHT22;17437;47.188;8.896;2023-05-02T05:03:53;9.50;99.90
30678;DHT22;17437;47.188;8.896;2023-05-02T05:06:25;9.40;99.90
30678;DHT22;17437;47.188;8.896;2023-05-02T05:08:57;9.40;99.90
30678;DHT22;17437;47.188;8.896;2023-05-02T05:11:29;9.40;99.90
30678;DHT22;17437;47.188;8.896;2023-05-02T05:14:00;9.50;99.90
30678;DHT22;17437;47.188;8.896;2023-05-02T05:16:33;9.50;99.90
30678;DHT22;17437;47.188;8.896;2023-05-02T05:19:05;9.40;99.90
30678;DHT22;17437;47.188;8.896;2023-05-02T05:21:36;9.50;99.90
30678;DHT22;17437;47.188;8.896;2023-05-02T05:24:08;9.40;99.90
30678;DHT22;17437;47.188;8.896;2023-05-02T05:26:39;9.40;99.90
30678;DHT22;17437;47.188;8.896;2023-05-02T05:29:11;9.40;99.90
30678;DHT22;17437;47.188;8.896;2023-05-02T05:31:42;9.40;99.90
30678;DHT22;17437;47.188;8.896;2023-05-02T05:34:14;9.40;99.90
30678;DHT22;17437;47.188;8.896;2023-05-02T05:36:45;9.40;99.90
30678;DHT22;17437;47.188;8.896;2023-05-02T05:39:17;9.40;99.90
30678;DHT22;17437;47.188;8.896;2023-05-02T05:41:49;9.40;99.90
30678;DHT22;17437;47.188;8.896;2023-05-02T05:44:20;9.40;99.90
30678;DHT22;17437;47.188;8.896;2023-05-02T05:46:52;9.50;99.90
30678;DHT22;17437;47.188;8.896;2023-05-02T05:49:24;9.50;99.90
30678;DHT22;17437;47.188;8.896;2023-05-02T05:51:55;9.50;99.90
30678;DHT22;17437;47.188;8.896;2023-05-02T05:54:27;9.60;99.90
30678;DHT22;17437;47.188;8.896;2023-05-02T05:56:58;9.70;99.90
30678;DHT22;17437;47.188;8.896;2023-05-02T05:59:30;9.70;99.90
30678;DHT22;17437;47.188;8.896;2023-05-02T06:02:03;9.70;99.90
30678;DHT22;17437;47.188;8.896;2023-05-02T06:04:34;9.80;99.90
30678;DHT22;17437;47.188;8.896;2023-05-02T06:07:06;9.90;99.90
30678;DHT22;17437;47.188;8.896;2023-05-02T06:09:38;9.90;99.90
30678;DHT22;17437;47.188;8.896;2023-05-02T06:12:09;9.90;99.90
30678;DHT22;17437;47.188;8.896;2023-05-02T06:14:41;9.80;99.90
30678;DHT22;17437;47.188;8.896;2023-05-02T06:17:13;9.90;99.90
30678;DHT22;17437;47.188;8.896;2023-05-02T06:19:44;10.00;99.90
30678;DHT22;17437;47.188;8.896;2023-05-02T06:22:16;10.00;99.90
30678;DHT22;17437;47.188;8.896;2023-05-02T06:24:47;10.00;99.90
30678;DHT22;17437;47.188;8.896;2023-05-02T06:27:19;10.10;99.90
30678;DHT22;17437;47.188;8.896;2023-05-02T06:29:51;10.20;99.90
30678;DHT22;17437;47.188;8.896;2023-05-02T06:32:23;10.30;99.90
30678;DHT22;17437;47.188;8.896;2023-05-02T06:34:55;10.40;99.90
30678;DHT22;17437;47.188;8.896;2023-05-02T06:37:27;10.50;99.90
30678;DHT22;17437;47.188;8.896;2023-05-02T06:40:00;10.60;99.90
30678;DHT22;17437;47.188;8.896;2023-05-02T06:42:32;10.60;99.90
30678;DHT22;17437;47.188;8.896;2023-05-02T06:45:04;10.50;99.90
30678;DHT22;17437;47.188;8.896;2023-05-02T06:47:37;10.40;99.90
30678;DHT22;17437;47.188;8.896;2023-05-02T06:50:10;10.40;99.90
30678;DHT22;17437;47.188;8.896;2023-05-02T06:52:41;10.50;99.90
30678;DHT22;17437;47.188;8.896;2023-05-02T06:55:13;10.50;99.90
30678;DHT22;17437;47.188;8.896;2023-05-02T06:57:45;10.50;99.90
30678;DHT22;17437;47.188;8.896;2023-05-02T07:00:18;10.60;99.90
30678;DHT22;17437;47.188;8.896;2023-05-02T07:02:50;10.70;99.90
30678;DHT22;17437;47.188;8.896;2023-05-02T07:05:21;10.70;99.90
30678;DHT22;17437;47.188;8.896;2023-05-02T07:07:53;10.80;99.90
30678;DHT22;17437;47.188;8.896;2023-05-02T07:10:25;10.90;99.90
30678;DHT22;17437;47.188;8.896;2023-05-02T07:12:57;11.00;99.90
30678;DHT22;17437;47.188;8.896;2023-05-02T07:15:29;11.00;99.90
30678;DHT22;17437;47.188;8.896;2023-05-02T07:18:01;11.10;99.90
30678;DHT22;17437;47.188;8.896;2023-05-02T07:20:33;11.10;99.90
30678;DHT22;17437;47.188;8.896;2023-05-02T07:23:04;11.20;99.90
30678;DHT22;17437;47.188;8.896;2023-05-02T07:25:36;11.20;99.90
30678;DHT22;17437;47.188;8.896;2023-05-02T07:28:09;11.20;99.90
30678;DHT22;17437;47.188;8.896;2023-05-02T07:30:40;11.10;99.90
30678;DHT22;17437;47.188;8.896;2023-05-02T07:33:13;11.10;99.90
30678;DHT22;17437;47.188;8.896;2023-05-02T07:35:45;11.00;99.90
30678;DHT22;17437;47.188;8.896;2023-05-02T07:38:17;11.00;99.90
30678;DHT22;17437;47.188;8.896;2023-05-02T07:40:48;11.10;99.90
30678;DHT22;17437;47.188;8.896;2023-05-02T07:43:20;11.00;99.90
30678;DHT22;17437;47.188;8.896;2023-05-02T07:45:52;11.00;99.90
30678;DHT22;17437;47.188;8.896;2023-05-02T07:48:24;11.20;99.90
30678;DHT22;17437;47.188;8.896;2023-05-02T07:51:05;11.10;99.90
30678;DHT22;17437;47.188;8.896;2023-05-02T07:53:37;11.10;99.90
30678;DHT22;17437;47.188;8.896;2023-05-02T07:56:48;11.00;99.90
30678;DHT22;17437;47.188;8.896;2023-05-02T07:59:23;11.00;99.90
30678;DHT22;17437;47.188;8.896;2023-05-02T08:01:54;11.10;99.90
30678;DHT22;17437;47.188;8.896;2023-05-02T08:04:26;11.20;99.90
30678;DHT22;17437;47.188;8.896;2023-05-02T08:06:58;11.20;99.90
30678;DHT22;17437;47.188;8.896;2023-05-02T08:09:30;11.20;99.90
30678;DHT22;17437;47.188;8.896;2023-05-02T08:12:02;11.30;99.90
30678;DHT22;17437;47.188;8.896;2023-05-02T08:14:33;11.40;99.90
30678;DHT22;17437;47.188;8.896;2023-05-02T08:17:05;11.60;99.90
30678;DHT22;17437;47.188;8.896;2023-05-02T08:19:37;11.70;99.90
30678;DHT22;17437;47.188;8.896;2023-05-02T08:22:09;11.80;99.90
30678;DHT22;17437;47.188;8.896;2023-05-02T08:24:40;12.00;99.90
30678;DHT22;17437;47.188;8.896;2023-05-02T08:27:12;12.10;99.90
30678;DHT22;17437;47.188;8.896;2023-05-02T08:29:43;12.20;99.90
30678;DHT22;17437;47.188;8.896;2023-05-02T08:32:15;12.20;99.90
30678;DHT22;17437;47.188;8.896;2023-05-02T08:34:46;12.20;99.90
30678;DHT22;17437;47.188;8.896;2023-05-02T08:37:18;12.20;99.90
30678;DHT22;17437;47.188;8.896;2023-05-02T08:39:50;12.20;99.90
30678;DHT22;17437;47.188;8.896;2023-05-02T08:42:22;12.10;99.90
30678;DHT22;17437;47.188;8.896;2023-05-02T08:44:54;11.90;99.90
30678;DHT22;17437;47.188;8.896;2023-05-02T08:47:27;11.80;99.90
30678;DHT22;17437;47.188;8.896;2023-05-02T08:50:00;11.80;99.90
30678;DHT22;17437;47.188;8.896;2023-05-02T08:52:32;11.80;99.90
30678;DHT22;17437;47.188;8.896;2023-05-02T08:55:06;11.80;99.90
30678;DHT22;17437;47.188;8.896;2023-05-02T08:57:38;11.90;99.90
30678;DHT22;17437;47.188;8.896;2023-05-02T09:00:12;12.00;99.90
30678;DHT22;17437;47.188;8.896;2023-05-02T09:02:50;12.10;99.90
30678;DHT22;17437;47.188;8.896;2023-05-02T09:05:24;12.40;99.90
30678;DHT22;17437;47.188;8.896;2023-05-02T09:07:56;12.60;99.90
30678;DHT22;17437;47.188;8.896;2023-05-02T09:10:28;12.80;99.90
30678;DHT22;17437;47.188;8.896;2023-05-02T09:15:57;12.80;99.90
30678;DHT22;17437;47.188;8.896;2023-05-02T09:18:31;12.80;99.90
30678;DHT22;17437;47.188;8.896;2023-05-02T09:21:05;12.90;99.90
30678;DHT22;17437;47.188;8.896;2023-05-02T09:23:40;12.90;99.90
30678;DHT22;17437;47.188;8.896;2023-05-02T09:26:17;12.90;99.90
30678;DHT22;17437;47.188;8.896;2023-05-02T09:28:49;12.90;99.90
30678;DHT22;17437;47.188;8.896;2023-05-02T09:31:23;13.00;99.90
30678;DHT22;17437;47.188;8.896;2023-05-02T09:33:56;13.20;99.90
30678;DHT22;17437;47.188;8.896;2023-05-02T09:36:31;13.50;99.90
30678;DHT22;17437;47.188;8.896;2023-05-02T09:39:10;13.70;99.90
30678;DHT22;17437;47.188;8.896;2023-05-02T09:41:44;13.90;99.90
30678;DHT22;17437;47.188;8.896;2023-05-02T09:44:17;14.20;99.90
30678;DHT22;17437;47.188;8.896;2023-05-02T09:46:51;14.50;99.90
30678;DHT22;17437;47.188;8.896;2023-05-02T09:49:39;14.80;99.90
30678;DHT22;17437;47.188;8.896;2023-05-02T09:52:12;14.70;99.90
30678;DHT22;17437;47.188;8.896;2023-05-02T09:54:45;14.60;99.90
30678;DHT22;17437;47.188;8.896;2023-05-02T09:57:18;14.50;99.90
30678;DHT22;17437;47.188;8.896;2023-05-02T09:59:55;14.60;99.90
30678;DHT22;17437;47.188;8.896;2023-05-02T10:02:29;14.60;99.90
30678;DHT22;17437;47.188;8.896;2023-05-02T10:05:04;14.70;99.90
30678;DHT22;17437;47.188;8.896;2023-05-02T10:07:38;14.70;99.90
30678;DHT22;17437;47.188;8.896;2023-05-02T10:10:10;14.70;99.90
30678;DHT22;17437;47.188;8.896;2023-05-02T10:12:45;14.60;99.90
30678;DHT22;17437;47.188;8.896;2023-05-02T10:15:19;14.60;99.90
30678;DHT22;17437;47.188;8.896;2023-05-02T10:17:54;14.40;99.90
30678;DHT22;17437;47.188;8.896;2023-05-02T10:20:31;14.30;99.90
30678;DHT22;17437;47.188;8.896;2023-05-02T10:23:03;14.20;99.90
30678;DHT22;17437;47.188;8.896;2023-05-02T10:25:35;14.30;99.90
30678;DHT22;17437;47.188;8.896;2023-05-02T10:28:07;14.30;99.90
30678;DHT22;17437;47.188;8.896;2023-05-02T10:30:40;14.40;99.90
30678;DHT22;17437;47.188;8.896;2023-05-02T10:33:13;14.40;99.90
30678;DHT22;17437;47.188;8.896;2023-05-02T10:35:46;14.50;99.90
30678;DHT22;17437;47.188;8.896;2023-05-02T10:38:20;14.60;99.90
30678;DHT22;17437;47.188;8.896;2023-05-02T10:40:56;14.60;99.90
30678;DHT22;17437;47.188;8.896;2023-05-02T10:43:31;14.40;99.90
30678;DHT22;17437;47.188;8.896;2023-05-02T10:46:03;14.30;99.90
30678;DHT22;17437;47.188;8.896;2023-05-02T10:48:36;14.30;99.90
30678;DHT22;17437;47.188;8.896;2023-05-02T10:51:08;14.40;99.90
30678;DHT22;17437;47.188;8.896;2023-05-02T10:53:41;14.50;99.90
30678;DHT22;17437;47.188;8.896;2023-05-02T10:56:17;14.20;99.90
30678;DHT22;17437;47.188;8.896;2023-05-02T10:58:51;14.20;99.90
30678;DHT22;17437;47.188;8.896;2023-05-02T11:01:35;14.30;99.90
30678;DHT22;17437;47.188;8.896;2023-05-02T11:04:11;14.40;99.90
30678;DHT22;17437;47.188;8.896;2023-05-02T11:09:50;14.60;99.90
30678;DHT22;17437;47.188;8.896;2023-05-02T11:12:43;14.70;99.90
30678;DHT22;17437;47.188;8.896;2023-05-02T11:18:03;15.00;99.90
30678;DHT22;17437;47.188;8.896;2023-05-02T11:20:37;15.20;99.90
30678;DHT22;17437;47.188;8.896;2023-05-02T11:23:23;15.50;99.90
30678;DHT22;17437;47.188;8.896;2023-05-02T11:25:56;15.80;99.90
30678;DHT22;17437;47.188;8.896;2023-05-02T11:28:43;16.10;99.90
30678;DHT22;17437;47.188;8.896;2023-05-02T11:34:28;16.70;99.90
30678;DHT22;17437;47.188;8.896;2023-05-02T11:37:09;16.60;99.90
30678;DHT22;17437;47.188;8.896;2023-05-02T11:39:41;16.30;99.90
30678;DHT22;17437;47.188;8.896;2023-05-02T11:42:28;16.40;99.90
30678;DHT22;17437;47.188;8.896;2023-05-02T11:45:01;16.50;99.90
30678;DHT22;17437;47.188;8.896;2023-05-02T11:47:33;16.20;99.90
30678;DHT22;17437;47.188;8.896;2023-05-02T11:50:06;16.60;99.90
30678;DHT22;17437;47.188;8.896;2023-05-02T11:52:39;17.00;99.90
30678;DHT22;17437;47.188;8.896;2023-05-02T11:55:12;17.10;99.90
30678;DHT22;17437;47.188;8.896;2023-05-02T11:57:45;17.20;99.90
30678;DHT22;17437;47.188;8.896;2023-05-02T12:00:17;17.00;99.90
30678;DHT22;17437;47.188;8.896;2023-05-02T12:02:49;16.60;99.90
30678;DHT22;17437;47.188;8.896;2023-05-02T12:05:27;16.60;99.90
30678;DHT22;17437;47.188;8.896;2023-05-02T12:07:59;17.30;99.90
30678;DHT22;17437;47.188;8.896;2023-05-02T12:10:38;17.60;99.90
30678;DHT22;17437;47.188;8.896;2023-05-02T12:13:09;17.70;99.90
30678;DHT22;17437;47.188;8.896;2023-05-02T12:15:41;17.80;99.90
30678;DHT22;17437;47.188;8.896;2023-05-02T12:18:13;18.20;99.90
30678;DHT22;17437;47.188;8.896;2023-05-02T12:20:45;18.40;99.90
30678;DHT22;17437;47.188;8.896;2023-05-02T12:23:17;18.30;99.90
30678;DHT22;17437;47.188;8.896;2023-05-02T12:25:50;18.30;99.90
30678;DHT22;17437;47.188;8.896;2023-05-02T12:28:21;18.20;99.90
30678;DHT22;17437;47.188;8.896;2023-05-02T12:30:54;18.40;99.90
30678;DHT22;17437;47.188;8.896;2023-05-02T12:33:26;18.50;99.90
30678;DHT22;17437;47.188;8.896;2023-05-02T12:36:05;18.30;99.90
30678;DHT22;17437;47.188;8.896;2023-05-02T12:38:39;18.10;99.90
30678;DHT22;17437;47.188;8.896;2023-05-02T12:41:10;18.10;99.90
30678;DHT22;17437;47.188;8.896;2023-05-02T12:43:47;18.20;99.90
30678;DHT22;17437;47.188;8.896;2023-05-02T12:46:21;18.30;99.90
30678;DHT22;17437;47.188;8.896;2023-05-02T12:49:02;18.00;99.90
30678;DHT22;17437;47.188;8.896;2023-05-02T12:51:35;17.80;99.90
30678;DHT22;17437;47.188;8.896;2023-05-02T12:54:07;17.60;99.90
30678;DHT22;17437;47.188;8.896;2023-05-02T12:56:41;17.40;99.90
30678;DHT22;17437;47.188;8.896;2023-05-02T12:59:26;17.40;99.90
30678;DHT22;17437;47.188;8.896;2023-05-02T13:01:58;17.30;99.90
30678;DHT22;17437;47.188;8.896;2023-05-02T13:04:37;17.40;99.90
30678;DHT22;17437;47.188;8.896;2023-05-02T13:07:10;17.40;99.90
30678;DHT22;17437;47.188;8.896;2023-05-02T13:09:41;17.50;99.90
30678;DHT22;17437;47.188;8.896;2023-05-02T13:12:13;17.80;99.90
30678;DHT22;17437;47.188;8.896;2023-05-02T13:14:44;17.80;99.90
30678;DHT22;17437;47.188;8.896;2023-05-02T13:17:16;17.70;99.90
30678;DHT22;17437;47.188;8.896;2023-05-02T13:19:48;17.60;99.90
30678;DHT22;17437;47.188;8.896;2023-05-02T13:22:21;17.70;99.90
30678;DHT22;17437;47.188;8.896;2023-05-02T13:24:53;17.70;99.90
30678;DHT22;17437;47.188;8.896;2023-05-02T13:27:25;17.70;99.90
30678;DHT22;17437;47.188;8.896;2023-05-02T13:29:57;17.70;99.90
30678;DHT22;17437;47.188;8.896;2023-05-02T13:32:29;17.90;99.90
30678;DHT22;17437;47.188;8.896;2023-05-02T13:35:01;17.80;99.90
30678;DHT22;17437;47.188;8.896;2023-05-02T13:37:32;17.80;99.90
30678;DHT22;17437;47.188;8.896;2023-05-02T13:40:06;17.80;99.90
30678;DHT22;17437;47.188;8.896;2023-05-02T13:42:38;18.00;99.90
30678;DHT22;17437;47.188;8.896;2023-05-02T13:45:10;18.00;99.90
30678;DHT22;17437;47.188;8.896;2023-05-02T13:47:43;17.90;99.90
30678;DHT22;17437;47.188;8.896;2023-05-02T13:50:15;18.10;99.90
30678;DHT22;17437;47.188;8.896;2023-05-02T13:52:46;18.30;99.90
30678;DHT22;17437;47.188;8.896;2023-05-02T13:55:19;18.30;99.90
30678;DHT22;17437;47.188;8.896;2023-05-02T13:57:50;18.30;99.90
30678;DHT22;17437;47.188;8.896;2023-05-02T14:00:22;18.20;99.90
30678;DHT22;17437;47.188;8.896;2023-05-02T14:02:53;18.00;99.90
30678;DHT22;17437;47.188;8.896;2023-05-02T14:05:25;17.90;99.90
30678;DHT22;17437;47.188;8.896;2023-05-02T14:07:57;17.90;99.90
30678;DHT22;17437;47.188;8.896;2023-05-02T14:10:28;17.70;99.90
30678;DHT22;17437;47.188;8.896;2023-05-02T14:13:00;17.50;99.90
30678;DHT22;17437;47.188;8.896;2023-05-02T14:15:31;17.30;99.90
30678;DHT22;17437;47.188;8.896;2023-05-02T14:18:03;17.10;99.90
30678;DHT22;17437;47.188;8.896;2023-05-02T14:20:35;16.80;99.90
30678;DHT22;17437;47.188;8.896;2023-05-02T14:23:07;16.40;99.90
30678;DHT22;17437;47.188;8.896;2023-05-02T14:25:39;16.20;99.90
30678;DHT22;17437;47.188;8.896;2023-05-02T14:28:10;15.80;99.90
30678;DHT22;17437;47.188;8.896;2023-05-02T14:30:42;15.20;99.90
30678;DHT22;17437;47.188;8.896;2023-05-02T14:33:13;14.80;99.90
30678;DHT22;17437;47.188;8.896;2023-05-02T14:35:45;14.50;99.90
30678;DHT22;17437;47.188;8.896;2023-05-02T14:38:17;14.40;99.90
30678;DHT22;17437;47.188;8.896;2023-05-02T14:40:48;14.10;99.90
30678;DHT22;17437;47.188;8.896;2023-05-02T14:43:20;14.00;99.90
30678;DHT22;17437;47.188;8.896;2023-05-02T14:45:52;13.90;99.90
30678;DHT22;17437;47.188;8.896;2023-05-02T14:48:23;13.70;99.90
30678;DHT22;17437;47.188;8.896;2023-05-02T14:50:55;13.70;99.90
30678;DHT22;17437;47.188;8.896;2023-05-02T14:53:28;13.70;99.90
30678;DHT22;17437;47.188;8.896;2023-05-02T14:56:00;13.70;99.90
30678;DHT22;17437;47.188;8.896;2023-05-02T14:58:31;13.70;99.90
30678;DHT22;17437;47.188;8.896;2023-05-02T15:01:04;13.70;99.90
30678;DHT22;17437;47.188;8.896;2023-05-02T15:03:35;13.80;99.90
30678;DHT22;17437;47.188;8.896;2023-05-02T15:06:08;13.90;99.90
30678;DHT22;17437;47.188;8.896;2023-05-02T15:08:40;13.90;99.90
30678;DHT22;17437;47.188;8.896;2023-05-02T15:11:13;14.00;99.90
30678;DHT22;17437;47.188;8.896;2023-05-02T15:13:45;14.20;99.90
30678;DHT22;17437;47.188;8.896;2023-05-02T15:16:17;14.40;99.90
30678;DHT22;17437;47.188;8.896;2023-05-02T15:18:49;14.60;99.90
30678;DHT22;17437;47.188;8.896;2023-05-02T15:21:20;14.80;99.90
30678;DHT22;17437;47.188;8.896;2023-05-02T15:23:52;15.10;99.90
30678;DHT22;17437;47.188;8.896;2023-05-02T15:26:23;15.30;99.90
30678;DHT22;17437;47.188;8.896;2023-05-02T15:28:55;15.40;99.90
30678;DHT22;17437;47.188;8.896;2023-05-02T15:31:27;15.30;99.90
30678;DHT22;17437;47.188;8.896;2023-05-02T15:33:59;15.20;99.90
30678;DHT22;17437;47.188;8.896;2023-05-02T15:36:30;14.90;99.90
30678;DHT22;17437;47.188;8.896;2023-05-02T15:39:04;14.80;99.90
30678;DHT22;17437;47.188;8.896;2023-05-02T15:41:35;14.80;99.90
30678;DHT22;17437;47.188;8.896;2023-05-02T15:44:07;14.80;99.90
30678;DHT22;17437;47.188;8.896;2023-05-02T15:46:39;15.00;99.90
30678;DHT22;17437;47.188;8.896;2023-05-02T15:49:12;15.30;99.90
30678;DHT22;17437;47.188;8.896;2023-05-02T15:51:44;15.50;99.90
30678;DHT22;17437;47.188;8.896;2023-05-02T15:54:16;15.70;99.90
30678;DHT22;17437;47.188;8.896;2023-05-02T15:56:47;15.80;99.90
30678;DHT22;17437;47.188;8.896;2023-05-02T15:59:19;15.80;99.90
30678;DHT22;17437;47.188;8.896;2023-05-02T16:01:51;15.80;99.90
30678;DHT22;17437;47.188;8.896;2023-05-02T16:04:22;15.70;99.90
30678;DHT22;17437;47.188;8.896;2023-05-02T16:06:55;15.60;99.90
30678;DHT22;17437;47.188;8.896;2023-05-02T16:09:27;15.60;99.90
30678;DHT22;17437;47.188;8.896;2023-05-02T16:12:00;15.50;99.90
30678;DHT22;17437;47.188;8.896;2023-05-02T16:14:32;15.40;99.90
30678;DHT22;17437;47.188;8.896;2023-05-02T16:17:04;15.40;99.90
30678;DHT22;17437;47.188;8.896;2023-05-02T16:19:36;15.40;99.90
30678;DHT22;17437;47.188;8.896;2023-05-02T16:22:07;15.30;99.90
30678;DHT22;17437;47.188;8.896;2023-05-02T16:24:39;15.10;99.90